KFTK/FTK METAR and TAF weather

Enter ICAO airport designator
Station Type Date Time Source
KFTK METAR 2022/09/26 08:29 UTC NOAA

KFTK 260829Z AUTO 26003KT 10SM SCT085 14/09 A2985 RMK AO2 SLP106


Station Type Date Time Source
KFTK Decoded METAR 2022/09/26 08:29 UTC NOAA

Fort Knox, KY, United States (KFTK) 37-54N 085-58W 230M
Sep 26, 2022 - 04:29 AM EDT / 2022.09.26 0829 UTC
Wind: from the W (260 degrees) at 3 MPH (3 KT):0
Visibility: 10 mile(s):0
Sky conditions: partly cloudy
Temperature: 57 F (14 C)
Dew Point: 48 F (9 C)
Relative Humidity: 71%
Pressure (altimeter): 29.85 in. Hg (1010 hPa)
ob: KFTK 260829Z AUTO 26003KT 10SM SCT085 14/09 A2985 RMK AO2 SLP106
cycle: 8

Station Type Date Time Source
KFTK TAF 2022/09/23 19:54 UTC NOAA

TAF TAF COR KFTK 231949Z 2319/2501 06008KT 9999 BKN100 BKN150 QNH3008INS
BECMG 2401/2402 11007KT 9999 VCSH BKN070 OVC120 QNH3002INS
TEMPO 2408/2414 8000 -SHRA OVC060
BECMG 2415/2416 20009KT 9999 VCSH SCT065 BKN100 QNH2989INS
TEMPO 2417/2422 23012G18KT TX22/2419Z TN12/2412Z LAST NO
AMDS AFT 2403 NEXT 2611

Example: see airport list